Brocton, Illinois
Current Conditions -  °F | °C
As of 9:55 PM on Sunday 23 Nov 2014 (Local Time) from KPRG Reporting Station
Moderate Rain Moderate Rain  
Wind Chill: 52°   Ceiling: 1700
Heat Index: 52°   Visibility: 5mi
Dew Point: 52°   Wind: 5mph
Humidity: 100%   Direction: 200°SSW
Pressure: 29.19"   Gusts: NA
Location:  39.72°N, 87.93°W
Report Text: KPRG 240355Z AUTO 20004KT 5SM RA SCT009 BKN017 OVC022 11/11 A2919 RMK AO2 P0004 T01100110
Loading
Personal Weather Stations






























Interactive Weather Map New forecast layout! Learn more

10-Day Weather Forecast

Advertisements
Track Severe Weather on mobile